sensor_id;sensor_type;location;lat;lon;timestamp;temperature;humidity
48019;DHT22;33786;48.690;9.562;2022-11-15T00:00:46;7.90;99.90
48019;DHT22;33786;48.690;9.562;2022-11-15T00:03:14;7.90;99.90
48019;DHT22;33786;48.690;9.562;2022-11-15T00:05:41;7.80;99.90
48019;DHT22;33786;48.690;9.562;2022-11-15T00:08:08;7.70;99.90
48019;DHT22;33786;48.690;9.562;2022-11-15T00:10:35;7.70;99.90
48019;DHT22;33786;48.690;9.562;2022-11-15T00:13:12;7.70;99.90
48019;DHT22;33786;48.690;9.562;2022-11-15T00:15:39;7.70;99.90
48019;DHT22;33786;48.690;9.562;2022-11-15T00:18:06;7.70;99.90
48019;DHT22;33786;48.690;9.562;2022-11-15T00:20:37;7.80;99.90
48019;DHT22;33786;48.690;9.562;2022-11-15T00:23:04;7.90;99.90
48019;DHT22;33786;48.690;9.562;2022-11-15T00:25:31;7.80;99.90
48019;DHT22;33786;48.690;9.562;2022-11-15T00:27:58;7.90;99.90
48019;DHT22;33786;48.690;9.562;2022-11-15T00:30:25;7.80;99.90
48019;DHT22;33786;48.690;9.562;2022-11-15T00:32:52;7.80;99.90
48019;DHT22;33786;48.690;9.562;2022-11-15T00:35:19;7.90;99.90
48019;DHT22;33786;48.690;9.562;2022-11-15T00:37:45;7.90;99.90
48019;DHT22;33786;48.690;9.562;2022-11-15T00:40:14;7.90;99.90
48019;DHT22;33786;48.690;9.562;2022-11-15T00:42:40;7.90;99.90
48019;DHT22;33786;48.690;9.562;2022-11-15T00:45:08;7.90;99.90
48019;DHT22;33786;48.690;9.562;2022-11-15T00:47:35;7.90;99.90
48019;DHT22;33786;48.690;9.562;2022-11-15T00:50:02;7.80;99.90
48019;DHT22;33786;48.690;9.562;2022-11-15T00:52:28;7.80;99.90
48019;DHT22;33786;48.690;9.562;2022-11-15T00:54:55;7.90;99.90
48019;DHT22;33786;48.690;9.562;2022-11-15T00:57:22;7.80;99.90
48019;DHT22;33786;48.690;9.562;2022-11-15T00:59:48;7.80;99.90
48019;DHT22;33786;48.690;9.562;2022-11-15T01:02:15;7.80;99.90
48019;DHT22;33786;48.690;9.562;2022-11-15T01:04:42;7.80;99.90
48019;DHT22;33786;48.690;9.562;2022-11-15T01:07:08;7.80;99.90
48019;DHT22;33786;48.690;9.562;2022-11-15T01:09:35;7.80;99.90
48019;DHT22;33786;48.690;9.562;2022-11-15T01:12:02;7.80;99.90
48019;DHT22;33786;48.690;9.562;2022-11-15T01:14:28;7.70;99.90
48019;DHT22;33786;48.690;9.562;2022-11-15T01:16:55;7.80;99.90
48019;DHT22;33786;48.690;9.562;2022-11-15T01:19:22;7.60;99.90
48019;DHT22;33786;48.690;9.562;2022-11-15T01:21:49;7.50;99.90
48019;DHT22;33786;48.690;9.562;2022-11-15T01:24:16;7.40;99.90
48019;DHT22;33786;48.690;9.562;2022-11-15T01:26:43;7.40;99.90
48019;DHT22;33786;48.690;9.562;2022-11-15T01:29:09;7.30;99.90
48019;DHT22;33786;48.690;9.562;2022-11-15T01:31:36;7.20;99.90
48019;DHT22;33786;48.690;9.562;2022-11-15T01:34:03;7.00;99.90
48019;DHT22;33786;48.690;9.562;2022-11-15T01:36:29;7.00;99.90
48019;DHT22;33786;48.690;9.562;2022-11-15T01:38:57;6.90;99.90
48019;DHT22;33786;48.690;9.562;2022-11-15T01:41:24;6.90;99.90
48019;DHT22;33786;48.690;9.562;2022-11-15T01:43:52;6.70;99.90
48019;DHT22;33786;48.690;9.562;2022-11-15T01:46:24;6.60;99.90
48019;DHT22;33786;48.690;9.562;2022-11-15T01:48:52;6.60;99.90
48019;DHT22;33786;48.690;9.562;2022-11-15T01:51:21;6.50;99.90
48019;DHT22;33786;48.690;9.562;2022-11-15T01:53:49;6.40;99.90
48019;DHT22;33786;48.690;9.562;2022-11-15T01:56:19;6.30;99.90
48019;DHT22;33786;48.690;9.562;2022-11-15T01:58:46;6.20;99.90
48019;DHT22;33786;48.690;9.562;2022-11-15T02:01:13;6.20;99.90
48019;DHT22;33786;48.690;9.562;2022-11-15T02:03:48;6.10;99.90
48019;DHT22;33786;48.690;9.562;2022-11-15T02:06:16;6.00;99.90
48019;DHT22;33786;48.690;9.562;2022-11-15T02:08:43;6.00;99.90
48019;DHT22;33786;48.690;9.562;2022-11-15T02:11:10;6.00;99.90
48019;DHT22;33786;48.690;9.562;2022-11-15T02:13:37;5.90;99.90
48019;DHT22;33786;48.690;9.562;2022-11-15T02:16:12;5.80;99.90
48019;DHT22;33786;48.690;9.562;2022-11-15T02:18:41;5.70;99.90
48019;DHT22;33786;48.690;9.562;2022-11-15T02:21:14;5.60;99.90
48019;DHT22;33786;48.690;9.562;2022-11-15T02:32:05;5.40;99.90
48019;DHT22;33786;48.690;9.562;2022-11-15T02:36:43;5.30;99.90
48019;DHT22;33786;48.690;9.562;2022-11-15T02:42:06;5.20;99.90
48019;DHT22;33786;48.690;9.562;2022-11-15T02:44:32;5.20;99.90
48019;DHT22;33786;48.690;9.562;2022-11-15T02:47:01;5.10;99.90
48019;DHT22;33786;48.690;9.562;2022-11-15T02:49:42;5.00;99.90
48019;DHT22;33786;48.690;9.562;2022-11-15T02:52:14;5.00;99.90
48019;DHT22;33786;48.690;9.562;2022-11-15T02:54:40;5.00;99.90
48019;DHT22;33786;48.690;9.562;2022-11-15T02:57:10;4.90;99.90
48019;DHT22;33786;48.690;9.562;2022-11-15T03:00:02;4.90;99.90
48019;DHT22;33786;48.690;9.562;2022-11-15T03:02:30;4.80;99.90
48019;DHT22;33786;48.690;9.562;2022-11-15T03:05:04;4.70;99.90
48019;DHT22;33786;48.690;9.562;2022-11-15T03:07:41;4.70;99.90
48019;DHT22;33786;48.690;9.562;2022-11-15T03:12:37;4.70;99.90
48019;DHT22;33786;48.690;9.562;2022-11-15T03:15:09;4.70;99.90
48019;DHT22;33786;48.690;9.562;2022-11-15T03:17:47;4.70;99.90
48019;DHT22;33786;48.690;9.562;2022-11-15T03:20:15;4.80;99.90
48019;DHT22;33786;48.690;9.562;2022-11-15T03:22:44;4.80;99.90
48019;DHT22;33786;48.690;9.562;2022-11-15T03:25:13;5.00;99.90
48019;DHT22;33786;48.690;9.562;2022-11-15T03:27:42;4.90;99.90
48019;DHT22;33786;48.690;9.562;2022-11-15T03:30:10;4.90;99.90
48019;DHT22;33786;48.690;9.562;2022-11-15T03:32:38;5.00;99.90
48019;DHT22;33786;48.690;9.562;2022-11-15T03:35:07;5.00;99.90
48019;DHT22;33786;48.690;9.562;2022-11-15T03:40:02;5.10;99.90
48019;DHT22;33786;48.690;9.562;2022-11-15T03:42:42;5.10;99.90
48019;DHT22;33786;48.690;9.562;2022-11-15T03:45:22;5.20;99.90
48019;DHT22;33786;48.690;9.562;2022-11-15T03:48:33;5.20;99.90
48019;DHT22;33786;48.690;9.562;2022-11-15T03:50:40;5.20;99.90
48019;DHT22;33786;48.690;9.562;2022-11-15T03:53:08;5.30;99.90
48019;DHT22;33786;48.690;9.562;2022-11-15T03:55:34;5.30;99.90
48019;DHT22;33786;48.690;9.562;2022-11-15T03:58:01;5.30;99.90
48019;DHT22;33786;48.690;9.562;2022-11-15T04:00:28;5.30;99.90
48019;DHT22;33786;48.690;9.562;2022-11-15T04:02:55;5.30;99.90
48019;DHT22;33786;48.690;9.562;2022-11-15T04:05:21;5.30;99.90
48019;DHT22;33786;48.690;9.562;2022-11-15T04:07:48;5.30;99.90
48019;DHT22;33786;48.690;9.562;2022-11-15T04:10:15;5.40;99.90
48019;DHT22;33786;48.690;9.562;2022-11-15T04:12:43;5.40;99.90
48019;DHT22;33786;48.690;9.562;2022-11-15T04:15:11;5.40;99.90
48019;DHT22;33786;48.690;9.562;2022-11-15T04:17:42;5.50;99.90
48019;DHT22;33786;48.690;9.562;2022-11-15T04:22:55;5.50;99.90
48019;DHT22;33786;48.690;9.562;2022-11-15T04:25:40;5.50;99.90
48019;DHT22;33786;48.690;9.562;2022-11-15T04:28:07;5.60;99.90
48019;DHT22;33786;48.690;9.562;2022-11-15T04:30:34;5.50;99.90
48019;DHT22;33786;48.690;9.562;2022-11-15T04:33:01;5.60;99.90
48019;DHT22;33786;48.690;9.562;2022-11-15T04:35:28;5.60;99.90
48019;DHT22;33786;48.690;9.562;2022-11-15T04:37:55;5.60;99.90
48019;DHT22;33786;48.690;9.562;2022-11-15T04:40:22;5.70;99.90
48019;DHT22;33786;48.690;9.562;2022-11-15T04:42:49;5.70;99.90
48019;DHT22;33786;48.690;9.562;2022-11-15T04:45:15;5.60;99.90
48019;DHT22;33786;48.690;9.562;2022-11-15T04:47:43;5.60;99.90
48019;DHT22;33786;48.690;9.562;2022-11-15T04:50:10;5.80;99.90
48019;DHT22;33786;48.690;9.562;2022-11-15T04:52:40;5.80;99.90
48019;DHT22;33786;48.690;9.562;2022-11-15T04:55:08;5.90;99.90
48019;DHT22;33786;48.690;9.562;2022-11-15T04:57:35;6.00;99.90
48019;DHT22;33786;48.690;9.562;2022-11-15T05:00:05;6.00;99.90
48019;DHT22;33786;48.690;9.562;2022-11-15T05:02:32;6.10;99.90
48019;DHT22;33786;48.690;9.562;2022-11-15T05:05:19;6.10;99.90
48019;DHT22;33786;48.690;9.562;2022-11-15T05:07:46;6.20;99.90
48019;DHT22;33786;48.690;9.562;2022-11-15T05:10:13;6.20;99.90
48019;DHT22;33786;48.690;9.562;2022-11-15T05:12:39;6.30;99.90
48019;DHT22;33786;48.690;9.562;2022-11-15T05:15:06;6.30;99.90
48019;DHT22;33786;48.690;9.562;2022-11-15T05:17:33;6.40;99.90
48019;DHT22;33786;48.690;9.562;2022-11-15T05:20:00;6.40;99.90
48019;DHT22;33786;48.690;9.562;2022-11-15T05:22:27;6.40;99.90
48019;DHT22;33786;48.690;9.562;2022-11-15T05:24:54;6.40;99.90
48019;DHT22;33786;48.690;9.562;2022-11-15T05:27:20;6.50;99.90
48019;DHT22;33786;48.690;9.562;2022-11-15T05:29:47;6.50;99.90
48019;DHT22;33786;48.690;9.562;2022-11-15T05:32:14;6.50;99.90
48019;DHT22;33786;48.690;9.562;2022-11-15T05:34:42;6.50;99.90
48019;DHT22;33786;48.690;9.562;2022-11-15T05:37:08;6.50;99.90
48019;DHT22;33786;48.690;9.562;2022-11-15T05:39:35;6.50;99.90
48019;DHT22;33786;48.690;9.562;2022-11-15T05:42:06;6.50;99.90
48019;DHT22;33786;48.690;9.562;2022-11-15T05:44:34;6.50;99.90
48019;DHT22;33786;48.690;9.562;2022-11-15T05:47:02;6.40;99.90
48019;DHT22;33786;48.690;9.562;2022-11-15T05:49:31;6.40;99.90
48019;DHT22;33786;48.690;9.562;2022-11-15T05:52:00;6.40;99.90
48019;DHT22;33786;48.690;9.562;2022-11-15T05:54:27;6.40;99.90
48019;DHT22;33786;48.690;9.562;2022-11-15T05:56:54;6.40;99.90
48019;DHT22;33786;48.690;9.562;2022-11-15T05:59:22;6.30;99.90
48019;DHT22;33786;48.690;9.562;2022-11-15T06:01:49;6.40;99.90
48019;DHT22;33786;48.690;9.562;2022-11-15T06:04:16;6.20;99.90
48019;DHT22;33786;48.690;9.562;2022-11-15T06:06:42;6.20;99.90
48019;DHT22;33786;48.690;9.562;2022-11-15T06:09:09;6.10;99.90
48019;DHT22;33786;48.690;9.562;2022-11-15T06:11:36;6.00;99.90
48019;DHT22;33786;48.690;9.562;2022-11-15T06:14:02;6.10;99.90
48019;DHT22;33786;48.690;9.562;2022-11-15T06:16:29;5.90;99.90
48019;DHT22;33786;48.690;9.562;2022-11-15T06:18:56;5.90;99.90
48019;DHT22;33786;48.690;9.562;2022-11-15T06:21:22;5.80;99.90
48019;DHT22;33786;48.690;9.562;2022-11-15T06:23:49;6.10;99.90
48019;DHT22;33786;48.690;9.562;2022-11-15T06:26:16;5.80;99.90
48019;DHT22;33786;48.690;9.562;2022-11-15T06:28:43;5.80;99.90
48019;DHT22;33786;48.690;9.562;2022-11-15T06:31:10;5.90;99.90
48019;DHT22;33786;48.690;9.562;2022-11-15T06:33:39;5.80;99.90
48019;DHT22;33786;48.690;9.562;2022-11-15T06:36:09;5.70;99.90
48019;DHT22;33786;48.690;9.562;2022-11-15T06:38:43;5.70;99.90
48019;DHT22;33786;48.690;9.562;2022-11-15T06:41:10;5.60;99.90
48019;DHT22;33786;48.690;9.562;2022-11-15T06:43:37;5.60;99.90
48019;DHT22;33786;48.690;9.562;2022-11-15T06:46:04;5.50;99.90
48019;DHT22;33786;48.690;9.562;2022-11-15T06:48:31;5.50;99.90
48019;DHT22;33786;48.690;9.562;2022-11-15T06:50:59;5.60;99.90
48019;DHT22;33786;48.690;9.562;2022-11-15T06:53:26;5.70;99.90
48019;DHT22;33786;48.690;9.562;2022-11-15T06:55:53;5.80;99.90
48019;DHT22;33786;48.690;9.562;2022-11-15T06:58:21;5.80;99.90
48019;DHT22;33786;48.690;9.562;2022-11-15T07:00:48;5.80;99.90
48019;DHT22;33786;48.690;9.562;2022-11-15T07:03:15;5.90;99.90
48019;DHT22;33786;48.690;9.562;2022-11-15T07:05:41;6.10;99.90
48019;DHT22;33786;48.690;9.562;2022-11-15T07:08:08;6.20;99.90
48019;DHT22;33786;48.690;9.562;2022-11-15T07:10:35;6.40;99.90
48019;DHT22;33786;48.690;9.562;2022-11-15T07:13:02;7.00;99.90
48019;DHT22;33786;48.690;9.562;2022-11-15T07:15:29;8.20;99.90
48019;DHT22;33786;48.690;9.562;2022-11-15T07:17:55;9.20;99.90
48019;DHT22;33786;48.690;9.562;2022-11-15T07:20:22;9.50;99.90
48019;DHT22;33786;48.690;9.562;2022-11-15T07:22:49;10.00;99.90
48019;DHT22;33786;48.690;9.562;2022-11-15T07:25:15;10.30;99.90
48019;DHT22;33786;48.690;9.562;2022-11-15T07:27:42;10.90;99.90
48019;DHT22;33786;48.690;9.562;2022-11-15T07:30:09;11.80;99.90
48019;DHT22;33786;48.690;9.562;2022-11-15T07:32:36;12.30;99.90
48019;DHT22;33786;48.690;9.562;2022-11-15T07:35:03;12.20;99.90
48019;DHT22;33786;48.690;9.562;2022-11-15T07:37:30;11.70;99.90
48019;DHT22;33786;48.690;9.562;2022-11-15T07:39:56;11.50;99.90
48019;DHT22;33786;48.690;9.562;2022-11-15T07:42:23;12.10;99.90
48019;DHT22;33786;48.690;9.562;2022-11-15T07:45:08;13.00;99.90
48019;DHT22;33786;48.690;9.562;2022-11-15T07:47:35;13.80;98.10
48019;DHT22;33786;48.690;9.562;2022-11-15T07:50:02;14.30;97.40
48019;DHT22;33786;48.690;9.562;2022-11-15T07:52:28;14.60;96.70
48019;DHT22;33786;48.690;9.562;2022-11-15T07:54:55;14.50;97.20
48019;DHT22;33786;48.690;9.562;2022-11-15T07:57:21;14.30;97.60
48019;DHT22;33786;48.690;9.562;2022-11-15T07:59:48;14.40;97.80
48019;DHT22;33786;48.690;9.562;2022-11-15T08:02:15;15.10;96.80
48019;DHT22;33786;48.690;9.562;2022-11-15T08:04:44;15.90;95.70
48019;DHT22;33786;48.690;9.562;2022-11-15T08:07:11;17.10;94.60
48019;DHT22;33786;48.690;9.562;2022-11-15T08:09:37;18.50;92.80
48019;DHT22;33786;48.690;9.562;2022-11-15T08:12:04;19.60;90.40
48019;DHT22;33786;48.690;9.562;2022-11-15T08:14:31;20.30;87.30
48019;DHT22;33786;48.690;9.562;2022-11-15T08:16:58;20.40;85.30
48019;DHT22;33786;48.690;9.562;2022-11-15T08:19:25;20.40;85.00
48019;DHT22;33786;48.690;9.562;2022-11-15T08:21:51;20.50;84.50
48019;DHT22;33786;48.690;9.562;2022-11-15T08:24:18;21.10;81.90
48019;DHT22;33786;48.690;9.562;2022-11-15T08:26:45;22.10;79.00
48019;DHT22;33786;48.690;9.562;2022-11-15T08:29:12;22.20;78.40
48019;DHT22;33786;48.690;9.562;2022-11-15T08:31:38;22.30;77.60
48019;DHT22;33786;48.690;9.562;2022-11-15T08:34:05;23.20;76.80
48019;DHT22;33786;48.690;9.562;2022-11-15T08:36:32;23.40;75.50
48019;DHT22;33786;48.690;9.562;2022-11-15T08:39:10;24.60;71.90
48019;DHT22;33786;48.690;9.562;2022-11-15T08:41:38;24.60;72.10
48019;DHT22;33786;48.690;9.562;2022-11-15T08:44:05;24.30;71.60
48019;DHT22;33786;48.690;9.562;2022-11-15T08:46:31;23.20;72.90
48019;DHT22;33786;48.690;9.562;2022-11-15T08:48:58;21.10;78.10
48019;DHT22;33786;48.690;9.562;2022-11-15T08:51:25;19.80;81.90
48019;DHT22;33786;48.690;9.562;2022-11-15T08:53:51;18.50;84.90
48019;DHT22;33786;48.690;9.562;2022-11-15T08:56:18;17.70;87.80
48019;DHT22;33786;48.690;9.562;2022-11-15T08:58:45;16.90;89.20
48019;DHT22;33786;48.690;9.562;2022-11-15T09:01:17;16.50;91.20
48019;DHT22;33786;48.690;9.562;2022-11-15T09:03:44;16.00;92.00
48019;DHT22;33786;48.690;9.562;2022-11-15T09:06:11;15.70;91.90
48019;DHT22;33786;48.690;9.562;2022-11-15T09:08:38;15.30;92.90
48019;DHT22;33786;48.690;9.562;2022-11-15T09:11:14;15.10;92.60
48019;DHT22;33786;48.690;9.562;2022-11-15T09:13:42;15.00;93.40
48019;DHT22;33786;48.690;9.562;2022-11-15T09:16:09;15.10;94.30
48019;DHT22;33786;48.690;9.562;2022-11-15T09:18:38;15.20;94.50
48019;DHT22;33786;48.690;9.562;2022-11-15T09:21:04;15.20;94.40
48019;DHT22;33786;48.690;9.562;2022-11-15T09:23:31;15.20;95.10
48019;DHT22;33786;48.690;9.562;2022-11-15T09:26:01;15.20;95.10
48019;DHT22;33786;48.690;9.562;2022-11-15T09:28:29;15.50;94.80
48019;DHT22;33786;48.690;9.562;2022-11-15T09:30:57;17.10;93.60
48019;DHT22;33786;48.690;9.562;2022-11-15T09:33:25;19.60;89.10
48019;DHT22;33786;48.690;9.562;2022-11-15T09:35:52;21.40;85.20
48019;DHT22;33786;48.690;9.562;2022-11-15T09:38:19;21.80;80.80
48019;DHT22;33786;48.690;9.562;2022-11-15T09:40:48;21.50;81.70
48019;DHT22;33786;48.690;9.562;2022-11-15T09:43:38;20.80;83.10
48019;DHT22;33786;48.690;9.562;2022-11-15T09:46:12;20.10;83.10
48019;DHT22;33786;48.690;9.562;2022-11-15T09:51:18;18.60;87.30
48019;DHT22;33786;48.690;9.562;2022-11-15T09:53:56;18.10;88.60
48019;DHT22;33786;48.690;9.562;2022-11-15T09:56:43;17.50;90.00
48019;DHT22;33786;48.690;9.562;2022-11-15T09:59:22;17.00;90.70
48019;DHT22;33786;48.690;9.562;2022-11-15T10:04:23;16.10;92.20
48019;DHT22;33786;48.690;9.562;2022-11-15T10:07:01;16.10;92.50
48019;DHT22;33786;48.690;9.562;2022-11-15T10:09:32;16.10;93.10
48019;DHT22;33786;48.690;9.562;2022-11-15T10:12:00;15.90;93.20
48019;DHT22;33786;48.690;9.562;2022-11-15T10:14:27;15.90;93.70
48019;DHT22;33786;48.690;9.562;2022-11-15T10:24:42;18.30;90.20
48019;DHT22;33786;48.690;9.562;2022-11-15T10:27:13;18.30;89.40
48019;DHT22;33786;48.690;9.562;2022-11-15T10:29:47;18.20;89.80
48019;DHT22;33786;48.690;9.562;2022-11-15T10:32:15;18.30;89.90
48019;DHT22;33786;48.690;9.562;2022-11-15T10:34:42;17.60;90.10
48019;DHT22;33786;48.690;9.562;2022-11-15T10:37:08;17.70;90.80
48019;DHT22;33786;48.690;9.562;2022-11-15T10:39:35;17.90;90.40
48019;DHT22;33786;48.690;9.562;2022-11-15T10:45:22;17.70;90.80
48019;DHT22;33786;48.690;9.562;2022-11-15T10:47:49;19.30;88.50
48019;DHT22;33786;48.690;9.562;2022-11-15T10:50:27;20.30;87.00
48019;DHT22;33786;48.690;9.562;2022-11-15T10:52:54;20.80;86.40
48019;DHT22;33786;48.690;9.562;2022-11-15T10:55:27;20.90;85.80
48019;DHT22;33786;48.690;9.562;2022-11-15T10:58:00;20.40;84.70
48019;DHT22;33786;48.690;9.562;2022-11-15T11:05:31;19.20;90.10
48019;DHT22;33786;48.690;9.562;2022-11-15T11:10:33;19.50;89.40
48019;DHT22;33786;48.690;9.562;2022-11-15T11:13:22;19.90;88.40
48019;DHT22;33786;48.690;9.562;2022-11-15T11:15:54;20.20;88.00
48019;DHT22;33786;48.690;9.562;2022-11-15T11:18:25;20.00;88.70
48019;DHT22;33786;48.690;9.562;2022-11-15T11:21:02;19.90;88.30
48019;DHT22;33786;48.690;9.562;2022-11-15T11:36:21;20.40;86.90
48019;DHT22;33786;48.690;9.562;2022-11-15T11:44:00;19.30;89.90
48019;DHT22;33786;48.690;9.562;2022-11-15T11:49:10;18.60;90.40
48019;DHT22;33786;48.690;9.562;2022-11-15T11:51:43;18.20;90.80
48019;DHT22;33786;48.690;9.562;2022-11-15T11:56:45;17.80;91.10
48019;DHT22;33786;48.690;9.562;2022-11-15T12:01:48;17.70;91.40
48019;DHT22;33786;48.690;9.562;2022-11-15T12:04:17;17.70;91.50
48019;DHT22;33786;48.690;9.562;2022-11-15T12:09:14;17.10;93.70
48019;DHT22;33786;48.690;9.562;2022-11-15T12:12:05;17.00;93.60
48019;DHT22;33786;48.690;9.562;2022-11-15T12:16:57;16.40;93.60
48019;DHT22;33786;48.690;9.562;2022-11-15T12:19:25;16.60;94.70
48019;DHT22;33786;48.690;9.562;2022-11-15T12:27:11;16.90;94.30
48019;DHT22;33786;48.690;9.562;2022-11-15T12:29:43;16.90;93.90
48019;DHT22;33786;48.690;9.562;2022-11-15T12:32:25;16.80;94.30
48019;DHT22;33786;48.690;9.562;2022-11-15T12:34:52;16.70;94.60
48019;DHT22;33786;48.690;9.562;2022-11-15T12:42:40;16.80;94.00
48019;DHT22;33786;48.690;9.562;2022-11-15T12:45:24;16.80;93.80
48019;DHT22;33786;48.690;9.562;2022-11-15T12:47:51;16.80;94.00
48019;DHT22;33786;48.690;9.562;2022-11-15T12:50:48;16.70;93.60
48019;DHT22;33786;48.690;9.562;2022-11-15T12:56:15;16.70;93.80
48019;DHT22;33786;48.690;9.562;2022-11-15T13:01:57;16.70;93.80
48019;DHT22;33786;48.690;9.562;2022-11-15T13:11:57;16.50;94.90
48019;DHT22;33786;48.690;9.562;2022-11-15T13:19:45;16.40;94.40
48019;DHT22;33786;48.690;9.562;2022-11-15T13:22:13;16.30;94.10
48019;DHT22;33786;48.690;9.562;2022-11-15T13:25:01;16.30;94.60
48019;DHT22;33786;48.690;9.562;2022-11-15T13:27:28;16.30;94.70
48019;DHT22;33786;48.690;9.562;2022-11-15T13:29:55;16.30;95.20
48019;DHT22;33786;48.690;9.562;2022-11-15T13:32:21;16.30;95.00
48019;DHT22;33786;48.690;9.562;2022-11-15T13:34:49;16.30;95.60
48019;DHT22;33786;48.690;9.562;2022-11-15T13:39:49;16.40;94.40
48019;DHT22;33786;48.690;9.562;2022-11-15T13:42:16;16.40;95.00
48019;DHT22;33786;48.690;9.562;2022-11-15T13:44:57;16.50;94.20
48019;DHT22;33786;48.690;9.562;2022-11-15T13:47:27;16.50;94.70
48019;DHT22;33786;48.690;9.562;2022-11-15T13:49:58;16.50;94.10
48019;DHT22;33786;48.690;9.562;2022-11-15T13:52:30;16.40;94.30
48019;DHT22;33786;48.690;9.562;2022-11-15T13:54:59;16.40;94.80
48019;DHT22;33786;48.690;9.562;2022-11-15T13:57:44;16.30;95.30
48019;DHT22;33786;48.690;9.562;2022-11-15T14:02:56;16.30;95.80
48019;DHT22;33786;48.690;9.562;2022-11-15T14:05:24;16.20;95.90
48019;DHT22;33786;48.690;9.562;2022-11-15T14:07:55;16.20;95.50
48019;DHT22;33786;48.690;9.562;2022-11-15T14:10:31;16.10;96.30
48019;DHT22;33786;48.690;9.562;2022-11-15T14:12:59;16.10;95.90
48019;DHT22;33786;48.690;9.562;2022-11-15T14:15:36;16.10;96.00
48019;DHT22;33786;48.690;9.562;2022-11-15T14:18:03;16.10;96.10
48019;DHT22;33786;48.690;9.562;2022-11-15T14:20:32;16.10;96.10
48019;DHT22;33786;48.690;9.562;2022-11-15T14:23:03;16.10;95.80
48019;DHT22;33786;48.690;9.562;2022-11-15T14:25:31;16.00;95.90
48019;DHT22;33786;48.690;9.562;2022-11-15T14:28:08;15.90;96.50
48019;DHT22;33786;48.690;9.562;2022-11-15T14:30:35;15.80;96.60
48019;DHT22;33786;48.690;9.562;2022-11-15T14:33:11;15.70;97.10
48019;DHT22;33786;48.690;9.562;2022-11-15T14:35:43;15.60;96.50
48019;DHT22;33786;48.690;9.562;2022-11-15T14:38:10;15.60;96.20
48019;DHT22;33786;48.690;9.562;2022-11-15T14:40:37;15.50;96.20
48019;DHT22;33786;48.690;9.562;2022-11-15T14:43:04;15.50;96.10
48019;DHT22;33786;48.690;9.562;2022-11-15T14:45:30;15.50;96.10
48019;DHT22;33786;48.690;9.562;2022-11-15T14:47:57;15.40;96.30
48019;DHT22;33786;48.690;9.562;2022-11-15T14:50:24;15.40;96.70
48019;DHT22;33786;48.690;9.562;2022-11-15T14:52:51;15.20;98.70
48019;DHT22;33786;48.690;9.562;2022-11-15T14:55:19;15.10;99.50
48019;DHT22;33786;48.690;9.562;2022-11-15T14:57:46;15.00;99.90
48019;DHT22;33786;48.690;9.562;2022-11-15T15:00:14;14.90;99.90
48019;DHT22;33786;48.690;9.562;2022-11-15T15:02:41;14.70;99.90
48019;DHT22;33786;48.690;9.562;2022-11-15T15:05:22;14.70;99.90
48019;DHT22;33786;48.690;9.562;2022-11-15T15:07:49;14.60;99.90
48019;DHT22;33786;48.690;9.562;2022-11-15T15:10:17;14.50;99.90
48019;DHT22;33786;48.690;9.562;2022-11-15T15:13:04;14.40;99.90
48019;DHT22;33786;48.690;9.562;2022-11-15T15:15:35;14.40;99.90
48019;DHT22;33786;48.690;9.562;2022-11-15T15:18:03;14.20;99.90
48019;DHT22;33786;48.690;9.562;2022-11-15T15:20:31;14.10;99.90
48019;DHT22;33786;48.690;9.562;2022-11-15T15:22:58;14.10;99.90
48019;DHT22;33786;48.690;9.562;2022-11-15T15:25:30;13.90;99.90
48019;DHT22;33786;48.690;9.562;2022-11-15T15:27:58;13.80;99.90
48019;DHT22;33786;48.690;9.562;2022-11-15T15:30:26;13.80;99.90
48019;DHT22;33786;48.690;9.562;2022-11-15T15:32:53;13.70;99.90
48019;DHT22;33786;48.690;9.562;2022-11-15T15:35:20;13.50;99.90
48019;DHT22;33786;48.690;9.562;2022-11-15T15:37:47;13.40;99.90
48019;DHT22;33786;48.690;9.562;2022-11-15T15:40:18;13.30;99.90
48019;DHT22;33786;48.690;9.562;2022-11-15T15:42:46;13.30;99.90
48019;DHT22;33786;48.690;9.562;2022-11-15T15:45:14;13.20;99.90
48019;DHT22;33786;48.690;9.562;2022-11-15T15:47:41;13.10;99.90
48019;DHT22;33786;48.690;9.562;2022-11-15T15:52:45;13.00;99.90
48019;DHT22;33786;48.690;9.562;2022-11-15T15:55:12;13.00;99.90
48019;DHT22;33786;48.690;9.562;2022-11-15T15:57:38;12.90;99.90
48019;DHT22;33786;48.690;9.562;2022-11-15T16:00:05;12.90;99.90
48019;DHT22;33786;48.690;9.562;2022-11-15T16:02:32;12.80;99.90
48019;DHT22;33786;48.690;9.562;2022-11-15T16:05:06;12.80;99.90
48019;DHT22;33786;48.690;9.562;2022-11-15T16:07:32;12.70;99.90
48019;DHT22;33786;48.690;9.562;2022-11-15T16:09:59;12.60;99.90
48019;DHT22;33786;48.690;9.562;2022-11-15T16:12:30;12.60;99.90
48019;DHT22;33786;48.690;9.562;2022-11-15T16:14:57;12.50;99.90
48019;DHT22;33786;48.690;9.562;2022-11-15T16:17:26;12.50;99.90
48019;DHT22;33786;48.690;9.562;2022-11-15T16:19:59;12.40;99.90
48019;DHT22;33786;48.690;9.562;2022-11-15T16:22:26;12.50;99.90
48019;DHT22;33786;48.690;9.562;2022-11-15T16:24:55;12.40;99.90
48019;DHT22;33786;48.690;9.562;2022-11-15T16:27:21;12.30;99.90
48019;DHT22;33786;48.690;9.562;2022-11-15T16:29:48;12.30;99.90
48019;DHT22;33786;48.690;9.562;2022-11-15T16:32:15;12.20;99.90
48019;DHT22;33786;48.690;9.562;2022-11-15T16:34:42;12.20;99.90
48019;DHT22;33786;48.690;9.562;2022-11-15T16:37:23;12.20;99.90
48019;DHT22;33786;48.690;9.562;2022-11-15T16:39:50;12.10;99.90
48019;DHT22;33786;48.690;9.562;2022-11-15T16:42:19;12.00;99.90
48019;DHT22;33786;48.690;9.562;2022-11-15T16:44:46;12.00;99.90
48019;DHT22;33786;48.690;9.562;2022-11-15T16:47:19;12.00;99.90
48019;DHT22;33786;48.690;9.562;2022-11-15T16:49:46;11.90;99.90
48019;DHT22;33786;48.690;9.562;2022-11-15T16:52:13;11.90;99.90
48019;DHT22;33786;48.690;9.562;2022-11-15T16:54:46;11.90;99.90
48019;DHT22;33786;48.690;9.562;2022-11-15T16:57:13;11.80;99.90
48019;DHT22;33786;48.690;9.562;2022-11-15T16:59:40;11.70;99.90
48019;DHT22;33786;48.690;9.562;2022-11-15T17:02:12;11.80;99.90
48019;DHT22;33786;48.690;9.562;2022-11-15T17:04:39;11.70;99.90
48019;DHT22;33786;48.690;9.562;2022-11-15T17:07:07;11.70;99.90
48019;DHT22;33786;48.690;9.562;2022-11-15T17:09:33;11.70;99.90
48019;DHT22;33786;48.690;9.562;2022-11-15T17:12:00;11.70;99.90
48019;DHT22;33786;48.690;9.562;2022-11-15T17:14:27;11.60;99.90
48019;DHT22;33786;48.690;9.562;2022-11-15T17:16:53;11.60;99.90
48019;DHT22;33786;48.690;9.562;2022-11-15T17:19:23;11.50;99.90
48019;DHT22;33786;48.690;9.562;2022-11-15T17:21:50;11.50;99.90
48019;DHT22;33786;48.690;9.562;2022-11-15T17:24:17;11.40;99.90
48019;DHT22;33786;48.690;9.562;2022-11-15T17:26:46;11.50;99.90
48019;DHT22;33786;48.690;9.562;2022-11-15T17:29:12;11.40;99.90
48019;DHT22;33786;48.690;9.562;2022-11-15T17:31:39;11.40;99.90
48019;DHT22;33786;48.690;9.562;2022-11-15T17:34:06;11.40;99.90
48019;DHT22;33786;48.690;9.562;2022-11-15T17:36:33;11.40;99.90
48019;DHT22;33786;48.690;9.562;2022-11-15T17:39:00;11.40;99.90
48019;DHT22;33786;48.690;9.562;2022-11-15T17:41:27;11.30;99.90